Time;durP1;ratioP1;P1;durP2;ratioP2;P2;SDS_P1;SDS_P2;PMS_P1;PMS_P2;Temp;Humidity;BMP_temperature;BMP_pressure;BME280_temperature;BME280_humidity;BME280_pressure;Samples;Min_cycle;Max_cycle;Signal;HPM_P1;HPM_P2
2024/02/16 00:00:23;;;;;;;21.20;14.50;;;9.90;99.90;;;;;;5075238;28;20103;-50
2024/02/16 00:02:48;;;;;;;20.38;13.48;;;9.90;99.90;;;;;;5067868;28;20612;-54
2024/02/16 00:05:14;;;;;;;21.10;13.35;;;9.90;99.90;;;;;;5076136;28;20039;-52
2024/02/16 00:07:39;;;;;;;18.13;12.55;;;9.90;99.90;;;;;;5077157;28;20054;-52
2024/02/16 00:10:06;;;;;;;21.35;14.23;;;9.90;99.90;;;;;;5072344;28;20031;-54
2024/02/16 00:12:32;;;;;;;17.15;12.40;;;9.80;99.90;;;;;;5076701;28;20359;-54
2024/02/16 00:15:02;;;;;;;17.95;13.02;;;9.80;99.90;;;;;;5076722;28;20178;-52
2024/02/16 00:17:28;;;;;;;17.70;12.93;;;9.80;99.90;;;;;;5077532;28;20016;-51
2024/02/16 00:19:54;;;;;;;19.77;12.75;;;9.70;99.90;;;;;;5074872;28;20085;-55
2024/02/16 00:22:20;;;;;;;17.65;12.35;;;9.70;99.90;;;;;;5076632;28;20036;-53
2024/02/16 00:24:46;;;;;;;22.77;15.30;;;9.70;99.90;;;;;;5074877;28;20233;-52
2024/02/16 00:27:11;;;;;;;18.77;13.00;;;9.60;99.90;;;;;;5074163;28;20590;-52
2024/02/16 00:29:39;;;;;;;19.58;12.95;;;9.60;99.90;;;;;;5076194;28;20482;-53
2024/02/16 00:32:08;;;;;;;20.58;13.93;;;9.60;99.90;;;;;;5076437;28;20024;-53
2024/02/16 00:34:35;;;;;;;19.05;13.00;;;9.50;99.90;;;;;;5073378;28;20036;-51
2024/02/16 00:37:00;;;;;;;20.67;13.73;;;9.50;99.90;;;;;;5070487;28;20513;-52
2024/02/16 00:39:26;;;;;;;21.45;14.35;;;9.50;99.90;;;;;;5076303;28;20024;-49
2024/02/16 00:41:51;;;;;;;18.77;12.77;;;9.50;99.90;;;;;;5075987;28;20063;-54
2024/02/16 00:44:17;;;;;;;23.65;14.77;;;9.40;99.90;;;;;;5076296;28;20031;-54
2024/02/16 00:46:44;;;;;;;23.05;14.05;;;9.40;99.90;;;;;;5074926;28;20032;-55
2024/02/16 00:49:13;;;;;;;26.50;15.05;;;9.40;99.90;;;;;;5076345;28;20405;-54
2024/02/16 00:51:39;;;;;;;21.75;15.50;;;9.40;99.90;;;;;;5075600;28;20063;-52
2024/02/16 00:54:04;;;;;;;27.25;18.50;;;9.50;99.90;;;;;;5077644;28;20058;-54
2024/02/16 00:56:32;;;;;;;25.50;15.52;;;9.40;99.90;;;;;;5075630;28;20063;-55
2024/02/16 00:58:57;;;;;;;21.20;14.68;;;9.40;99.90;;;;;;5072484;28;20485;-54
2024/02/16 01:01:24;;;;;;;22.05;15.75;;;9.30;99.90;;;;;;5071140;28;20095;-56
2024/02/16 01:03:51;;;;;;;25.15;15.23;;;9.30;99.90;;;;;;5078041;28;20020;-53
2024/02/16 01:06:17;;;;;;;22.73;15.02;;;9.30;99.90;;;;;;5077648;28;20473;-55
2024/02/16 01:08:43;;;;;;;21.38;14.05;;;9.30;99.90;;;;;;5079505;28;20043;-53
2024/02/16 01:11:09;;;;;;;23.10;14.63;;;9.20;99.90;;;;;;5076316;28;20035;-54
2024/02/16 01:13:34;;;;;;;24.08;13.85;;;9.10;99.90;;;;;;5078562;28;20118;-52
2024/02/16 01:16:00;;;;;;;21.88;14.57;;;9.00;99.90;;;;;;5078050;28;20032;-53
2024/02/16 01:18:27;;;;;;;25.60;15.88;;;9.00;99.90;;;;;;5078608;28;20035;-55
2024/02/16 01:20:53;;;;;;;22.02;13.70;;;8.90;99.90;;;;;;5078717;28;20370;-55
2024/02/16 01:23:19;;;;;;;23.75;15.82;;;8.90;99.90;;;;;;5078155;28;20097;-54
2024/02/16 01:25:44;;;;;;;24.27;15.55;;;8.80;99.90;;;;;;5080320;28;20078;-55
2024/02/16 01:28:12;;;;;;;26.98;17.35;;;8.80;99.90;;;;;;5078621;28;20032;-52
2024/02/16 01:30:38;;;;;;;35.50;18.77;;;8.70;99.90;;;;;;5078729;28;20465;-55
2024/02/16 01:33:05;;;;;;;24.65;15.60;;;8.70;99.90;;;;;;5078878;28;20032;-53
2024/02/16 01:35:31;;;;;;;27.88;17.42;;;8.70;99.90;;;;;;5071238;28;20031;-53
2024/02/16 01:37:57;;;;;;;22.63;14.88;;;8.70;99.90;;;;;;5073854;28;20027;-55
2024/02/16 01:40:25;;;;;;;29.50;16.30;;;8.60;99.90;;;;;;5078506;28;20052;-52
2024/02/16 01:42:52;;;;;;;26.15;16.33;;;8.60;99.90;;;;;;5080747;28;20054;-54
2024/02/16 01:45:18;;;;;;;27.00;15.88;;;8.50;99.90;;;;;;5078911;28;20481;-53
2024/02/16 01:47:46;;;;;;;33.95;19.15;;;8.50;99.90;;;;;;5075678;28;20043;-52
2024/02/16 01:50:12;;;;;;;27.23;18.10;;;8.50;99.90;;;;;;5081715;28;20405;-55
2024/02/16 01:52:38;;;;;;;28.98;18.08;;;8.40;99.90;;;;;;5077467;28;20040;-52
2024/02/16 01:55:04;;;;;;;25.83;16.30;;;8.40;99.90;;;;;;5080507;28;20016;-53
2024/02/16 01:57:31;;;;;;;28.08;17.08;;;8.40;99.90;;;;;;5081872;28;20447;-50
2024/02/16 01:59:58;;;;;;;30.58;18.60;;;8.40;99.90;;;;;;5083881;28;20438;-52
2024/02/16 02:02:23;;;;;;;30.98;18.10;;;8.30;99.90;;;;;;5077354;28;20224;-50
2024/02/16 02:04:49;;;;;;;30.05;18.48;;;8.30;99.90;;;;;;5081974;28;20055;-55
2024/02/16 02:07:15;;;;;;;35.38;21.40;;;8.30;99.90;;;;;;5081872;28;20107;-55
2024/02/16 02:09:41;;;;;;;38.28;21.98;;;8.30;99.90;;;;;;5081577;28;20500;-51
2024/02/16 02:12:08;;;;;;;31.02;19.05;;;8.30;99.90;;;;;;5082418;28;20454;-52
2024/02/16 02:14:34;;;;;;;36.95;21.20;;;8.20;99.90;;;;;;5076689;28;20030;-50
2024/02/16 02:17:00;;;;;;;31.08;18.25;;;8.20;99.90;;;;;;5079488;28;20118;-49
2024/02/16 02:19:26;;;;;;;31.02;19.65;;;8.20;99.90;;;;;;5078187;28;20542;-53
2024/02/16 02:21:52;;;;;;;35.28;20.83;;;8.20;99.90;;;;;;5076752;28;20271;-52
2024/02/16 02:24:17;;;;;;;34.90;22.00;;;8.20;99.90;;;;;;5076542;28;20062;-53
2024/02/16 02:26:43;;;;;;;45.25;25.33;;;8.20;99.90;;;;;;5077366;28;20021;-53
2024/02/16 02:29:08;;;;;;;43.63;24.13;;;8.20;99.90;;;;;;5080703;28;20024;-53
2024/02/16 02:31:34;;;;;;;37.72;21.80;;;8.20;99.90;;;;;;5074089;28;20094;-52
2024/02/16 02:34:00;;;;;;;37.63;22.27;;;8.20;99.90;;;;;;5079241;28;20028;-50
2024/02/16 02:36:25;;;;;;;46.75;27.13;;;8.20;99.90;;;;;;5077391;28;20028;-51
2024/02/16 02:38:51;;;;;;;43.53;26.48;;;8.20;99.90;;;;;;5081326;28;20032;-48
2024/02/16 02:41:19;;;;;;;43.95;26.70;;;8.20;99.90;;;;;;5073057;28;20390;-51
2024/02/16 02:43:45;;;;;;;44.40;26.40;;;8.20;99.90;;;;;;5073753;28;20063;-54
2024/02/16 02:46:15;;;;;;;40.47;25.80;;;8.30;99.90;;;;;;5078949;28;20393;-51
2024/02/16 02:48:43;;;;;;;46.47;27.30;;;8.30;99.90;;;;;;5079106;28;20064;-51
2024/02/16 02:51:09;;;;;;;52.67;28.92;;;8.30;99.90;;;;;;5078043;28;20501;-51
2024/02/16 02:53:35;;;;;;;48.83;27.70;;;8.30;99.90;;;;;;5083166;28;20015;-54
2024/02/16 02:56:01;;;;;;;40.63;24.48;;;8.40;99.90;;;;;;5073864;28;20048;-52
2024/02/16 02:58:27;;;;;;;45.13;26.85;;;8.30;99.90;;;;;;5075881;28;20538;-54
2024/02/16 03:00:52;;;;;;;39.80;24.60;;;8.30;99.90;;;;;;5072696;28;20078;-54
2024/02/16 03:03:18;;;;;;;50.67;26.92;;;8.40;99.90;;;;;;5073833;28;20443;-53
2024/02/16 03:05:43;;;;;;;40.13;23.83;;;8.30;99.90;;;;;;5076767;28;20037;-53
2024/02/16 03:08:10;;;;;;;39.25;25.77;;;8.30;99.90;;;;;;5075912;28;20044;-53
2024/02/16 03:10:36;;;;;;;38.58;25.30;;;8.30;99.90;;;;;;5082525;28;20027;-51
2024/02/16 03:13:02;;;;;;;31.75;21.58;;;8.30;99.90;;;;;;5080615;28;20020;-50
2024/02/16 03:15:29;;;;;;;36.05;22.58;;;8.30;99.90;;;;;;5080939;28;20073;-53
2024/02/16 03:17:54;;;;;;;39.70;24.95;;;8.30;99.90;;;;;;5080517;28;20024;-52
2024/02/16 03:20:21;;;;;;;43.85;26.33;;;8.30;99.90;;;;;;5080527;28;20115;-53
2024/02/16 03:22:47;;;;;;;44.30;26.58;;;8.20;99.90;;;;;;5080591;28;20092;-54
2024/02/16 03:25:12;;;;;;;37.85;22.88;;;8.20;99.90;;;;;;5082478;28;20671;-52
2024/02/16 03:27:38;;;;;;;41.90;25.27;;;8.20;99.90;;;;;;5074588;28;20012;-51
2024/02/16 03:30:04;;;;;;;42.53;24.38;;;8.20;99.90;;;;;;5072518;28;20400;-50
2024/02/16 03:32:31;;;;;;;41.00;24.52;;;8.20;99.90;;;;;;5078741;28;20032;-54
2024/02/16 03:34:58;;;;;;;41.85;22.73;;;8.20;99.90;;;;;;5076222;28;20104;-50
2024/02/16 03:37:24;;;;;;;36.63;22.63;;;8.10;99.90;;;;;;5075996;28;20309;-54
2024/02/16 03:39:49;;;;;;;39.90;23.77;;;8.10;99.90;;;;;;5080129;28;20024;-51
2024/02/16 03:42:17;;;;;;;43.17;24.35;;;8.10;99.90;;;;;;5078477;28;20032;-54
2024/02/16 03:44:43;;;;;;;45.58;25.98;;;8.10;99.90;;;;;;5075926;28;20024;-49
2024/02/16 03:47:09;;;;;;;41.63;23.48;;;8.10;99.90;;;;;;5080023;28;20095;-53
2024/02/16 03:49:34;;;;;;;34.17;21.17;;;8.10;99.90;;;;;;5080279;28;20150;-48
2024/02/16 03:52:00;;;;;;;36.10;20.92;;;8.10;99.90;;;;;;5079825;28;20047;-52
2024/02/16 03:54:25;;;;;;;42.85;22.73;;;8.00;99.90;;;;;;5079993;28;20024;-52
2024/02/16 03:56:54;;;;;;;38.38;21.50;;;8.00;99.90;;;;;;5081715;28;20505;-52
2024/02/16 03:59:20;;;;;;;34.75;21.17;;;8.00;99.90;;;;;;5063457;28;20031;-50
2024/02/16 04:01:46;;;;;;;35.53;20.15;;;8.00;99.90;;;;;;5076827;28;20016;-49
2024/02/16 04:04:11;;;;;;;45.08;23.88;;;8.00;99.90;;;;;;5079401;28;20107;-52
2024/02/16 04:06:38;;;;;;;47.80;25.73;;;8.00;99.90;;;;;;5079903;28;20024;-49
2024/02/16 04:09:05;;;;;;;39.53;24.08;;;8.00;99.90;;;;;;5079477;28;20040;-54
2024/02/16 04:11:32;;;;;;;44.97;24.85;;;8.00;99.90;;;;;;5079462;28;20489;-53
2024/02/16 04:13:57;;;;;;;48.42;24.88;;;8.10;99.90;;;;;;5081472;28;20409;-53
2024/02/16 04:16:24;;;;;;;47.33;26.00;;;8.10;99.90;;;;;;5079242;28;20025;-53
2024/02/16 04:18:54;;;;;;;46.42;25.42;;;8.10;99.90;;;;;;5079826;28;20028;-54
2024/02/16 04:21:20;;;;;;;45.08;25.50;;;8.20;99.90;;;;;;5079137;28;20026;-52
2024/02/16 04:23:46;;;;;;;47.00;25.58;;;8.20;99.90;;;;;;5079542;28;20032;-53
2024/02/16 04:26:12;;;;;;;43.08;24.15;;;8.20;99.90;;;;;;5079403;28;20027;-54
2024/02/16 04:28:37;;;;;;;44.90;25.52;;;8.20;99.90;;;;;;5079646;28;20049;-54
2024/02/16 04:31:03;;;;;;;35.70;21.70;;;8.20;99.90;;;;;;5081494;28;20089;-54
2024/02/16 04:33:28;;;;;;;40.90;23.10;;;8.10;99.90;;;;;;5079730;28;20044;-52
2024/02/16 04:35:54;;;;;;;41.80;22.35;;;8.20;99.90;;;;;;5078208;28;20062;-51
2024/02/16 04:38:19;;;;;;;36.15;22.60;;;8.10;99.90;;;;;;5078913;28;20031;-54
2024/02/16 04:40:45;;;;;;;36.78;20.17;;;8.10;99.90;;;;;;5079308;28;20028;-52
2024/02/16 04:43:11;;;;;;;40.35;21.77;;;8.10;99.90;;;;;;5079371;28;20027;-54
2024/02/16 04:45:37;;;;;;;34.08;20.20;;;8.10;99.90;;;;;;5081449;28;20557;-52
2024/02/16 04:48:06;;;;;;;36.38;20.65;;;8.10;99.90;;;;;;5075078;28;20024;-51
2024/02/16 04:50:33;;;;;;;33.63;18.52;;;8.10;99.90;;;;;;5074974;28;20067;-51
2024/02/16 04:52:58;;;;;;;31.40;19.48;;;8.10;99.90;;;;;;5079256;28;20119;-53
2024/02/16 04:55:24;;;;;;;32.28;17.77;;;8.10;99.90;;;;;;5074958;28;20154;-53
2024/02/16 04:57:49;;;;;;;31.27;19.33;;;8.10;99.90;;;;;;5079530;28;20093;-53
2024/02/16 05:00:15;;;;;;;36.80;19.50;;;8.10;99.90;;;;;;5079112;28;20012;-50
2024/02/16 05:02:41;;;;;;;30.35;19.35;;;8.10;99.90;;;;;;5072887;28;20031;-54
2024/02/16 05:05:06;;;;;;;37.28;19.25;;;8.10;99.90;;;;;;5079177;28;20027;-54
2024/02/16 05:07:33;;;;;;;27.88;17.08;;;8.10;99.90;;;;;;5078919;28;20513;-50
2024/02/16 05:09:58;;;;;;;33.03;18.85;;;8.10;99.90;;;;;;5078578;28;20111;-52
2024/02/16 05:12:24;;;;;;;32.78;17.65;;;8.10;99.90;;;;;;5079039;28;20127;-53
2024/02/16 05:14:51;;;;;;;31.63;16.35;;;8.10;99.90;;;;;;5073617;28;20028;-50
2024/02/16 05:17:16;;;;;;;27.60;16.92;;;8.10;99.90;;;;;;5078566;28;20034;-55
2024/02/16 05:19:42;;;;;;;35.45;19.60;;;8.00;99.90;;;;;;5080715;28;20102;-54
2024/02/16 05:22:07;;;;;;;28.65;16.67;;;8.00;99.90;;;;;;5078936;28;20020;-49
2024/02/16 05:24:33;;;;;;;30.80;16.75;;;8.00;99.90;;;;;;5078735;28;20060;-53
2024/02/16 05:26:59;;;;;;;30.60;16.90;;;8.00;99.90;;;;;;5078371;28;20070;-51
2024/02/16 05:29:26;;;;;;;28.30;16.10;;;8.00;99.90;;;;;;5077577;28;20088;-52
2024/02/16 05:31:52;;;;;;;36.53;20.65;;;8.00;99.90;;;;;;5078537;28;20024;-53
2024/02/16 05:34:18;;;;;;;28.60;16.58;;;8.00;99.90;;;;;;5077432;28;20539;-53
2024/02/16 05:36:44;;;;;;;32.70;17.23;;;8.00;99.90;;;;;;5080526;28;20035;-52
2024/02/16 05:39:31;;;;;;;32.53;17.42;;;8.00;99.90;;;;;;5078509;28;20044;-52
2024/02/16 05:41:56;;;;;;;29.33;18.83;;;8.00;99.90;;;;;;5074793;28;20736;-53
2024/02/16 05:44:21;;;;;;;31.70;16.95;;;8.00;99.90;;;;;;5078875;28;20028;-51
2024/02/16 05:46:47;;;;;;;34.47;19.05;;;8.00;99.90;;;;;;5074214;28;20028;-52
2024/02/16 05:49:14;;;;;;;33.17;18.33;;;8.10;99.90;;;;;;5078471;28;20028;-52
2024/02/16 05:51:40;;;;;;;31.08;17.63;;;8.10;99.90;;;;;;5078439;28;20038;-52
2024/02/16 05:54:07;;;;;;;35.20;19.85;;;8.10;99.90;;;;;;5076485;28;20024;-53
2024/02/16 05:56:36;;;;;;;29.52;17.90;;;8.10;99.90;;;;;;5070095;28;20024;-53
2024/02/16 05:59:02;;;;;;;32.75;18.88;;;8.10;99.90;;;;;;5074208;28;20036;-53
2024/02/16 06:01:29;;;;;;;29.52;16.70;;;8.10;99.90;;;;;;5069242;28;20016;-50
2024/02/16 06:03:55;;;;;;;29.80;18.42;;;8.10;99.90;;;;;;5078122;28;20382;-54
2024/02/16 06:06:20;;;;;;;32.03;18.15;;;8.00;99.90;;;;;;5078217;28;20072;-51
2024/02/16 06:08:46;;;;;;;29.80;16.83;;;8.00;99.90;;;;;;5075135;28;20073;-53
2024/02/16 06:11:11;;;;;;;34.53;19.50;;;8.00;99.90;;;;;;5078158;28;20024;-52
2024/02/16 06:13:37;;;;;;;24.20;15.13;;;7.90;99.90;;;;;;5078205;28;20055;-53
2024/02/16 06:16:08;;;;;;;29.50;16.70;;;7.90;99.90;;;;;;5078155;28;20544;-50
2024/02/16 06:18:36;;;;;;;34.97;19.98;;;7.80;99.90;;;;;;5077998;28;20020;-50
2024/02/16 06:21:02;;;;;;;26.42;16.25;;;7.80;99.90;;;;;;5074481;28;20020;-50
2024/02/16 06:23:27;;;;;;;36.38;19.70;;;7.90;99.90;;;;;;5075557;28;20076;-51
2024/02/16 06:25:53;;;;;;;38.00;19.80;;;7.80;99.90;;;;;;5078953;28;20035;-54
2024/02/16 06:28:18;;;;;;;31.38;18.33;;;7.80;99.90;;;;;;5080492;28;20122;-52
2024/02/16 06:30:44;;;;;;;29.88;18.50;;;7.80;99.90;;;;;;5075070;28;20044;-54
2024/02/16 06:33:10;;;;;;;32.80;17.65;;;7.80;99.90;;;;;;5075082;28;20500;-49
2024/02/16 06:35:35;;;;;;;37.42;20.25;;;7.80;99.90;;;;;;5073512;28;20022;-53
2024/02/16 06:38:01;;;;;;;33.78;19.20;;;7.80;99.90;;;;;;5074709;28;20797;-53
2024/02/16 06:40:26;;;;;;;35.03;20.90;;;7.80;99.90;;;;;;5076350;28;20020;-50
2024/02/16 06:42:52;;;;;;;33.08;17.95;;;7.90;99.90;;;;;;5074360;28;20024;-52
2024/02/16 06:45:17;;;;;;;30.25;18.27;;;7.90;99.90;;;;;;5076990;28;20031;-52
2024/02/16 06:47:43;;;;;;;29.40;18.05;;;7.90;99.90;;;;;;5077210;28;20079;-50
2024/02/16 06:50:09;;;;;;;32.80;18.38;;;7.90;99.90;;;;;;5072755;28;20512;-52
2024/02/16 06:52:34;;;;;;;32.00;18.60;;;8.00;99.90;;;;;;5081449;28;20107;-53
2024/02/16 06:55:00;;;;;;;29.83;17.45;;;8.00;99.90;;;;;;5080946;28;20047;-52
2024/02/16 06:57:25;;;;;;;30.42;17.52;;;8.00;99.90;;;;;;5080858;28;20081;-51
2024/02/16 06:59:53;;;;;;;28.42;17.80;;;8.20;99.90;;;;;;5080823;28;20022;-51
2024/02/16 07:02:18;;;;;;;28.27;18.33;;;8.30;99.90;;;;;;5074454;28;20020;-49
2024/02/16 07:04:45;;;;;;;31.65;18.55;;;8.50;99.90;;;;;;5080752;28;20016;-49
2024/02/16 07:07:11;;;;;;;30.33;17.65;;;8.80;99.90;;;;;;5080609;28;20200;-53
2024/02/16 07:09:37;;;;;;;31.55;18.02;;;9.00;99.90;;;;;;5082349;28;20035;-52
2024/02/16 07:12:02;;;;;;;25.20;16.88;;;9.00;99.90;;;;;;5076182;28;20040;-53
2024/02/16 07:14:28;;;;;;;25.90;16.55;;;9.10;99.90;;;;;;5080718;28;20027;-51
2024/02/16 07:16:53;;;;;;;24.50;15.45;;;9.30;99.90;;;;;;5080483;28;20056;-52
2024/02/16 07:19:19;;;;;;;22.42;14.95;;;9.60;99.90;;;;;;5080104;28;20485;-52
2024/02/16 07:21:44;;;;;;;29.52;18.00;;;9.90;99.90;;;;;;5080814;28;20107;-52
2024/02/16 07:24:10;;;;;;;29.05;16.42;;;10.10;99.90;;;;;;5082186;28;20028;-53
2024/02/16 07:26:36;;;;;;;20.35;13.88;;;10.10;99.90;;;;;;5080190;28;20024;-49
2024/02/16 07:29:02;;;;;;;21.42;13.25;;;10.00;99.90;;;;;;5079766;28;20020;-52
2024/02/16 07:31:35;;;;;;;24.67;13.88;;;9.90;99.90;;;;;;5080396;28;20275;-53
2024/02/16 07:34:01;;;;;;;22.25;14.40;;;9.90;99.90;;;;;;5080073;28;20027;-49
2024/02/16 07:36:27;;;;;;;17.65;12.73;;;9.80;99.90;;;;;;5080079;28;20008;-49
2024/02/16 07:38:52;;;;;;;21.05;14.25;;;9.80;99.90;;;;;;5079003;28;20022;-52
2024/02/16 07:41:18;;;;;;;18.80;13.30;;;9.80;99.90;;;;;;5080575;28;20424;-51
2024/02/16 07:43:43;;;;;;;17.23;11.55;;;9.80;99.90;;;;;;5077745;28;20032;-52
2024/02/16 07:46:09;;;;;;;19.52;11.95;;;9.80;99.90;;;;;;5079838;28;20389;-51
2024/02/16 07:48:35;;;;;;;17.83;12.40;;;9.80;99.90;;;;;;5079753;28;20055;-52
2024/02/16 07:51:02;;;;;;;25.17;13.88;;;9.80;99.90;;;;;;5075329;28;20040;-50
2024/02/16 07:53:28;;;;;;;21.48;14.32;;;9.90;99.90;;;;;;5079770;28;20552;-53
2024/02/16 07:55:53;;;;;;;18.83;12.80;;;10.30;99.90;;;;;;5079931;28;20242;-51
2024/02/16 07:58:19;;;;;;;20.83;13.25;;;10.70;99.90;;;;;;5080861;28;20052;-52
2024/02/16 08:00:44;;;;;;;17.67;12.15;;;11.10;99.90;;;;;;5079776;28;20054;-49
2024/02/16 08:03:10;;;;;;;17.45;12.15;;;11.20;99.90;;;;;;5072965;28;20028;-51
2024/02/16 08:05:35;;;;;;;17.92;12.27;;;11.50;99.90;;;;;;5074653;28;20406;-51
2024/02/16 08:08:01;;;;;;;15.40;11.43;;;11.80;99.90;;;;;;5073184;28;20206;-51
2024/02/16 08:10:27;;;;;;;21.30;10.98;;;12.00;99.90;;;;;;5077050;28;20043;-50
2024/02/16 08:12:52;;;;;;;16.42;11.05;;;12.00;99.90;;;;;;5075107;28;20031;-50
2024/02/16 08:15:22;;;;;;;14.98;9.57;;;12.20;99.90;;;;;;5076753;28;20033;-52
2024/02/16 08:17:49;;;;;;;15.30;10.52;;;12.50;99.90;;;;;;5078753;28;20231;-56
2024/02/16 08:20:15;;;;;;;17.10;10.70;;;12.60;99.90;;;;;;5075108;28;20388;-55
2024/02/16 08:22:40;;;;;;;15.25;10.63;;;12.60;99.90;;;;;;5070832;28;20032;-55
2024/02/16 08:25:07;;;;;;;15.55;10.38;;;12.60;99.90;;;;;;5076772;28;20032;-54
2024/02/16 08:27:32;;;;;;;15.02;9.38;;;12.60;99.90;;;;;;5074328;28;20028;-57
2024/02/16 08:29:58;;;;;;;14.23;8.93;;;12.80;99.90;;;;;;5078029;28;21210;-54
2024/02/16 08:32:23;;;;;;;14.48;8.90;;;13.00;99.90;;;;;;5078309;28;20028;-56
2024/02/16 08:34:49;;;;;;;11.50;8.27;;;13.40;99.90;;;;;;5077607;28;20579;-54
2024/02/16 08:37:16;;;;;;;13.35;8.68;;;13.70;99.90;;;;;;5074620;28;20385;-51
2024/02/16 08:39:41;;;;;;;15.70;10.10;;;14.00;99.90;;;;;;5074460;28;20040;-55
2024/02/16 08:42:11;;;;;;;14.13;8.07;;;14.30;99.90;;;;;;5073596;28;20017;-55
2024/02/16 08:44:38;;;;;;;16.15;9.18;;;14.50;99.90;;;;;;5071080;28;20016;-53
2024/02/16 08:47:04;;;;;;;12.98;8.63;;;14.70;99.90;;;;;;5074013;28;20020;-53
2024/02/16 08:49:30;;;;;;;11.32;8.73;;;14.90;99.90;;;;;;5077869;28;20095;-55
2024/02/16 08:51:56;;;;;;;11.35;7.85;;;14.90;96.30;;;;;;5074396;28;20033;-52
2024/02/16 08:54:22;;;;;;;11.77;8.30;;;14.90;97.10;;;;;;5073217;28;20031;-55
2024/02/16 08:56:48;;;;;;;13.68;8.43;;;15.10;97.10;;;;;;5075691;28;20024;-55
2024/02/16 08:59:14;;;;;;;11.52;7.50;;;15.20;95.60;;;;;;5073941;28;20393;-53
2024/02/16 09:01:39;;;;;;;10.30;7.80;;;15.10;93.60;;;;;;5076947;28;20367;-54
2024/02/16 09:04:05;;;;;;;11.50;8.32;;;15.10;95.90;;;;;;5078612;28;20038;-55
2024/02/16 09:06:31;;;;;;;10.93;7.50;;;14.90;93.20;;;;;;5077319;28;20032;-54
2024/02/16 09:08:57;;;;;;;10.75;6.57;;;14.70;92.30;;;;;;5078039;28;20122;-54
2024/02/16 09:11:23;;;;;;;11.10;7.53;;;14.60;94.40;;;;;;5078273;28;20038;-51
2024/02/16 09:13:49;;;;;;;10.07;7.18;;;14.70;95.30;;;;;;5076875;28;20027;-49
2024/02/16 09:16:15;;;;;;;10.63;7.10;;;14.60;94.80;;;;;;5076244;28;20050;-54
2024/02/16 09:18:40;;;;;;;12.40;7.30;;;14.50;94.70;;;;;;5078304;28;20016;-54
2024/02/16 09:21:07;;;;;;;8.80;6.10;;;14.20;92.40;;;;;;5078066;28;20031;-54
2024/02/16 09:23:34;;;;;;;10.52;6.47;;;14.00;93.70;;;;;;5078172;28;20024;-51
2024/02/16 09:26:00;;;;;;;11.73;7.35;;;13.80;94.10;;;;;;5077923;28;20108;-54
2024/02/16 09:28:26;;;;;;;8.88;6.38;;;13.80;95.20;;;;;;5078211;28;20102;-53
2024/02/16 09:30:52;;;;;;;8.52;6.68;;;13.60;94.00;;;;;;5078010;28;20112;-53
2024/02/16 09:33:17;;;;;;;13.18;8.43;;;13.60;95.20;;;;;;5078433;28;20119;-53
2024/02/16 09:35:43;;;;;;;10.25;7.65;;;13.60;95.80;;;;;;5077842;28;20617;-55
2024/02/16 09:38:11;;;;;;;11.63;7.72;;;13.60;96.30;;;;;;5077852;28;20044;-51
2024/02/16 09:40:37;;;;;;;13.10;7.57;;;13.70;95.60;;;;;;5077884;28;20020;-53
2024/02/16 09:43:02;;;;;;;13.30;8.98;;;13.60;95.00;;;;;;5076433;28;20703;-53
2024/02/16 09:45:30;;;;;;;12.98;7.97;;;13.60;94.80;;;;;;5079990;28;20115;-53
2024/02/16 09:47:57;;;;;;;17.00;10.15;;;13.50;94.60;;;;;;5079561;28;20024;-50
2024/02/16 09:50:23;;;;;;;10.57;7.25;;;13.50;95.50;;;;;;5077891;28;20093;-54
2024/02/16 09:52:50;;;;;;;9.95;7.47;;;13.60;94.60;;;;;;5077874;28;20028;-54
2024/02/16 09:55:20;;;;;;;10.90;7.32;;;13.50;94.80;;;;;;5077692;28;20023;-54
2024/02/16 09:57:46;;;;;;;11.82;7.85;;;13.60;95.60;;;;;;5073546;28;20413;-54
2024/02/16 10:00:13;;;;;;;9.23;7.10;;;13.60;95.30;;;;;;5073457;28;20371;-52
2024/02/16 10:02:48;;;;;;;10.75;7.18;;;13.60;95.00;;;;;;5074495;28;20249;-53
2024/02/16 10:05:16;;;;;;;16.25;11.63;;;13.60;94.10;;;;;;5077560;28;20545;-54
2024/02/16 10:07:42;;;;;;;11.98;7.85;;;13.50;94.90;;;;;;5077441;28;20132;-54
2024/02/16 10:10:24;;;;;;;9.75;7.43;;;13.50;94.70;;;;;;5076912;28;20051;-52
2024/02/16 10:13:00;;;;;;;10.25;7.45;;;13.50;94.00;;;;;;5076450;28;20243;-50
2024/02/16 10:15:25;;;;;;;11.82;7.88;;;13.50;94.40;;;;;;5076429;28;20024;-54
2024/02/16 10:18:04;;;;;;;10.98;6.65;;;13.70;94.60;;;;;;5077576;28;20236;-53
2024/02/16 10:20:34;;;;;;;11.10;6.97;;;13.90;93.90;;;;;;5084201;28;20562;-57
2024/02/16 10:23:07;;;;;;;10.77;6.90;;;14.00;93.60;;;;;;5077058;28;20489;-55
2024/02/16 10:25:38;;;;;;;11.25;6.03;;;14.00;92.30;;;;;;5077363;28;20032;-55
2024/02/16 10:28:06;;;;;;;8.63;6.95;;;14.00;93.00;;;;;;5079647;28;20370;-49
2024/02/16 10:30:37;;;;;;;9.10;6.20;;;14.00;93.40;;;;;;5081033;28;20052;-53
2024/02/16 10:33:03;;;;;;;10.02;7.03;;;14.00;93.00;;;;;;5075730;28;20066;-54
2024/02/16 10:35:29;;;;;;;9.27;6.25;;;13.90;93.30;;;;;;5081173;28;20077;-55
2024/02/16 10:37:57;;;;;;;8.70;5.95;;;13.90;93.90;;;;;;5081301;28;20081;-52
2024/02/16 10:40:23;;;;;;;7.55;5.80;;;13.80;94.00;;;;;;5079675;28;20028;-55
2024/02/16 10:42:52;;;;;;;9.30;7.43;;;13.90;94.20;;;;;;5080863;28;20024;-54
2024/02/16 10:45:21;;;;;;;10.65;6.85;;;13.90;94.40;;;;;;5081098;28;20027;-51
2024/02/16 10:47:46;;;;;;;7.10;6.07;;;13.90;94.00;;;;;;5080840;28;20036;-55
2024/02/16 10:50:12;;;;;;;10.73;6.45;;;13.90;94.30;;;;;;5081512;28;20508;-51
2024/02/16 10:52:41;;;;;;;12.23;7.28;;;13.90;93.50;;;;;;5079890;28;20024;-53
2024/02/16 10:55:08;;;;;;;8.85;6.43;;;14.00;93.40;;;;;;5081076;28;20024;-53
2024/02/16 10:57:36;;;;;;;10.05;7.43;;;14.00;93.60;;;;;;5080520;28;20374;-54
2024/02/16 11:00:09;;;;;;;8.00;6.13;;;13.90;92.00;;;;;;5080674;28;20031;-54
2024/02/16 11:02:55;;;;;;;10.32;6.40;;;13.90;92.50;;;;;;5074361;28;20077;-52
2024/02/16 11:05:46;;;;;;;10.68;7.15;;;13.90;92.30;;;;;;5077312;28;20012;-52
2024/02/16 11:08:16;;;;;;;7.97;6.28;;;13.80;91.80;;;;;;5075278;28;20036;-52
2024/02/16 11:10:55;;;;;;;9.32;6.55;;;13.80;91.20;;;;;;5076217;28;20032;-54
2024/02/16 11:13:27;;;;;;;8.68;7.05;;;13.80;92.40;;;;;;5077296;28;20054;-55
2024/02/16 11:16:00;;;;;;;10.90;6.55;;;13.80;92.90;;;;;;5082280;28;20023;-53
2024/02/16 11:18:29;;;;;;;9.38;6.70;;;13.80;92.60;;;;;;5077086;28;20366;-56
2024/02/16 11:20:55;;;;;;;8.05;6.15;;;13.80;91.80;;;;;;5080491;28;20103;-55
2024/02/16 11:23:31;;;;;;;11.60;7.38;;;13.70;92.20;;;;;;5082400;28;20095;-57
2024/02/16 11:26:01;;;;;;;11.40;7.50;;;13.70;91.90;;;;;;5076973;28;20081;-57
2024/02/16 11:28:29;;;;;;;10.43;7.00;;;13.70;92.10;;;;;;5080302;28;20374;-53
2024/02/16 11:30:54;;;;;;;11.40;8.30;;;13.70;92.60;;;;;;5078040;28;20035;-54
2024/02/16 11:33:19;;;;;;;14.60;7.60;;;13.70;91.50;;;;;;5071797;28;20028;-54
2024/02/16 11:35:59;;;;;;;15.38;7.88;;;13.70;92.20;;;;;;5073641;28;20093;-53
2024/02/16 11:38:25;;;;;;;9.35;7.25;;;13.80;93.20;;;;;;5078489;28;20753;-52
2024/02/16 11:40:56;;;;;;;9.05;6.82;;;13.80;92.90;;;;;;5075592;28;20477;-52
2024/02/16 11:43:23;;;;;;;10.85;7.40;;;13.80;92.90;;;;;;5071030;28;20028;-52
2024/02/16 11:45:48;;;;;;;9.07;6.90;;;13.80;92.50;;;;;;5075265;28;20051;-54
2024/02/16 11:48:22;;;;;;;8.95;6.18;;;13.90;92.50;;;;;;5069181;28;20489;-55
2024/02/16 11:50:48;;;;;;;8.32;6.28;;;13.90;92.40;;;;;;5074306;28;20603;-55
2024/02/16 11:53:20;;;;;;;9.32;6.40;;;14.00;92.70;;;;;;5078398;28;20035;-50
2024/02/16 11:55:48;;;;;;;10.23;6.45;;;14.10;93.10;;;;;;5078082;28;20074;-51
2024/02/16 11:58:15;;;;;;;13.35;7.00;;;14.20;92.40;;;;;;5077743;28;20158;-54
2024/02/16 12:00:41;;;;;;;8.85;6.65;;;14.30;91.80;;;;;;5075370;28;20489;-52
2024/02/16 12:03:07;;;;;;;9.25;6.13;;;14.40;91.80;;;;;;5070942;28;20028;-50
2024/02/16 12:05:33;;;;;;;11.05;6.43;;;14.50;91.90;;;;;;5077228;28;20035;-51
2024/02/16 12:07:59;;;;;;;9.45;6.75;;;14.50;91.70;;;;;;5079120;28;20123;-54
2024/02/16 12:10:27;;;;;;;9.75;6.35;;;14.60;91.90;;;;;;5079448;28;20051;-53
2024/02/16 12:12:52;;;;;;;10.93;6.82;;;14.60;92.20;;;;;;5079356;28;20020;-52
2024/02/16 12:15:19;;;;;;;10.60;6.30;;;14.70;92.10;;;;;;5079487;28;20634;-56
2024/02/16 12:17:45;;;;;;;7.60;5.95;;;14.70;91.90;;;;;;5079319;28;20122;-54
2024/02/16 12:20:13;;;;;;;8.68;6.43;;;14.80;91.40;;;;;;5079257;28;20063;-54
2024/02/16 12:22:38;;;;;;;8.18;5.47;;;14.80;91.50;;;;;;5079406;28;20126;-49
2024/02/16 12:25:04;;;;;;;7.43;5.15;;;14.90;91.30;;;;;;5080724;28;20518;-54
2024/02/16 12:27:29;;;;;;;9.05;5.85;;;14.90;91.50;;;;;;5079176;28;20055;-54
2024/02/16 12:29:55;;;;;;;7.00;4.80;;;15.00;91.30;;;;;;5079167;28;20027;-54
2024/02/16 12:32:20;;;;;;;6.90;4.68;;;15.20;91.60;;;;;;5078915;28;20077;-53
2024/02/16 12:34:46;;;;;;;7.68;4.85;;;15.30;91.30;;;;;;5079048;28;20035;-52